sensor_id;sensor_type;location;lat;lon;timestamp;temperature;humidity
25963;DHT22;13760;52.588;13.406;2022-12-18T00:00:05;-4.20;99.90
25963;DHT22;13760;52.588;13.406;2022-12-18T00:02:31;-4.20;99.90
25963;DHT22;13760;52.588;13.406;2022-12-18T00:05:00;-4.30;99.90
25963;DHT22;13760;52.588;13.406;2022-12-18T00:07:25;-4.40;99.90
25963;DHT22;13760;52.588;13.406;2022-12-18T00:09:51;-4.40;99.90
25963;DHT22;13760;52.588;13.406;2022-12-18T00:12:16;-4.40;99.90
25963;DHT22;13760;52.588;13.406;2022-12-18T00:14:45;-4.40;99.90
25963;DHT22;13760;52.588;13.406;2022-12-18T00:17:10;-4.50;99.90
25963;DHT22;13760;52.588;13.406;2022-12-18T00:19:36;-4.50;99.90
25963;DHT22;13760;52.588;13.406;2022-12-18T00:22:01;-4.50;99.90
25963;DHT22;13760;52.588;13.406;2022-12-18T00:24:27;-4.50;99.90
25963;DHT22;13760;52.588;13.406;2022-12-18T00:26:52;-4.50;99.90
25963;DHT22;13760;52.588;13.406;2022-12-18T00:29:18;-4.50;99.90
25963;DHT22;13760;52.588;13.406;2022-12-18T00:31:44;-4.50;99.90
25963;DHT22;13760;52.588;13.406;2022-12-18T00:34:13;-4.50;99.90
25963;DHT22;13760;52.588;13.406;2022-12-18T00:36:39;-4.50;99.90
25963;DHT22;13760;52.588;13.406;2022-12-18T00:39:05;-4.50;99.90
25963;DHT22;13760;52.588;13.406;2022-12-18T00:41:31;-4.50;99.90
25963;DHT22;13760;52.588;13.406;2022-12-18T00:44:16;-4.50;99.90
25963;DHT22;13760;52.588;13.406;2022-12-18T00:46:43;-4.50;99.90
25963;DHT22;13760;52.588;13.406;2022-12-18T00:49:09;-4.50;99.90
25963;DHT22;13760;52.588;13.406;2022-12-18T00:51:37;-4.50;99.90
25963;DHT22;13760;52.588;13.406;2022-12-18T00:54:03;-4.50;99.90
25963;DHT22;13760;52.588;13.406;2022-12-18T00:56:29;-4.50;99.90
25963;DHT22;13760;52.588;13.406;2022-12-18T00:58:54;-4.50;99.90
25963;DHT22;13760;52.588;13.406;2022-12-18T01:01:20;-4.40;99.90
25963;DHT22;13760;52.588;13.406;2022-12-18T01:03:46;-4.50;99.90
25963;DHT22;13760;52.588;13.406;2022-12-18T01:06:13;-4.50;99.90
25963;DHT22;13760;52.588;13.406;2022-12-18T01:08:39;-4.50;99.90
25963;DHT22;13760;52.588;13.406;2022-12-18T01:11:14;-4.50;99.90
25963;DHT22;13760;52.588;13.406;2022-12-18T01:13:40;-4.50;99.90
25963;DHT22;13760;52.588;13.406;2022-12-18T01:16:05;-4.50;99.90
25963;DHT22;13760;52.588;13.406;2022-12-18T01:18:31;-4.50;99.90
25963;DHT22;13760;52.588;13.406;2022-12-18T01:20:57;-4.50;99.90
25963;DHT22;13760;52.588;13.406;2022-12-18T01:23:26;-4.50;99.90
25963;DHT22;13760;52.588;13.406;2022-12-18T01:25:51;-4.60;99.90
25963;DHT22;13760;52.588;13.406;2022-12-18T01:28:17;-4.60;99.90
25963;DHT22;13760;52.588;13.406;2022-12-18T01:30:42;-4.60;99.90
25963;DHT22;13760;52.588;13.406;2022-12-18T01:33:08;-4.60;99.90
25963;DHT22;13760;52.588;13.406;2022-12-18T01:35:41;-4.60;99.90
25963;DHT22;13760;52.588;13.406;2022-12-18T01:38:07;-4.60;99.90
25963;DHT22;13760;52.588;13.406;2022-12-18T01:40:32;-4.60;99.90
25963;DHT22;13760;52.588;13.406;2022-12-18T01:42:58;-4.60;99.90
25963;DHT22;13760;52.588;13.406;2022-12-18T01:45:24;-4.60;99.90
25963;DHT22;13760;52.588;13.406;2022-12-18T01:47:53;-4.60;99.90
25963;DHT22;13760;52.588;13.406;2022-12-18T01:52:50;-4.60;99.90
25963;DHT22;13760;52.588;13.406;2022-12-18T01:55:19;-4.60;99.90
25963;DHT22;13760;52.588;13.406;2022-12-18T01:57:46;-4.70;99.90
25963;DHT22;13760;52.588;13.406;2022-12-18T02:00:17;-4.70;99.90
25963;DHT22;13760;52.588;13.406;2022-12-18T02:02:45;-4.70;99.90
25963;DHT22;13760;52.588;13.406;2022-12-18T02:05:12;-4.70;99.90
25963;DHT22;13760;52.588;13.406;2022-12-18T02:07:55;-4.80;99.90
25963;DHT22;13760;52.588;13.406;2022-12-18T02:10:36;-4.80;99.90
25963;DHT22;13760;52.588;13.406;2022-12-18T02:13:13;-4.80;99.90
25963;DHT22;13760;52.588;13.406;2022-12-18T02:18:36;-4.80;99.90
25963;DHT22;13760;52.588;13.406;2022-12-18T02:21:36;-4.80;99.90
25963;DHT22;13760;52.588;13.406;2022-12-18T02:24:16;-4.80;99.90
25963;DHT22;13760;52.588;13.406;2022-12-18T02:26:52;-4.80;99.90
25963;DHT22;13760;52.588;13.406;2022-12-18T02:29:22;-4.80;99.90
25963;DHT22;13760;52.588;13.406;2022-12-18T02:31:54;-4.80;99.90
25963;DHT22;13760;52.588;13.406;2022-12-18T02:34:24;-4.80;99.90
25963;DHT22;13760;52.588;13.406;2022-12-18T02:36:51;-4.80;99.90
25963;DHT22;13760;52.588;13.406;2022-12-18T02:39:19;-4.90;99.90
25963;DHT22;13760;52.588;13.406;2022-12-18T02:41:46;-4.90;99.90
25963;DHT22;13760;52.588;13.406;2022-12-18T02:44:13;-4.90;99.90
25963;DHT22;13760;52.588;13.406;2022-12-18T02:46:49;-4.90;99.90
25963;DHT22;13760;52.588;13.406;2022-12-18T02:58:05;-4.90;99.90
25963;DHT22;13760;52.588;13.406;2022-12-18T03:00:37;-5.00;99.90
25963;DHT22;13760;52.588;13.406;2022-12-18T03:03:13;-5.00;99.90
25963;DHT22;13760;52.588;13.406;2022-12-18T03:05:53;-5.00;99.90
25963;DHT22;13760;52.588;13.406;2022-12-18T03:08:27;-5.00;99.90
25963;DHT22;13760;52.588;13.406;2022-12-18T03:11:07;-5.00;99.90
25963;DHT22;13760;52.588;13.406;2022-12-18T03:13:48;-5.00;99.90
25963;DHT22;13760;52.588;13.406;2022-12-18T03:16:24;-5.00;99.90
25963;DHT22;13760;52.588;13.406;2022-12-18T03:19:01;-5.00;99.90
25963;DHT22;13760;52.588;13.406;2022-12-18T03:21:42;-5.00;99.90
25963;DHT22;13760;52.588;13.406;2022-12-18T03:24:09;-5.00;99.90
25963;DHT22;13760;52.588;13.406;2022-12-18T03:26:38;-5.00;99.90
25963;DHT22;13760;52.588;13.406;2022-12-18T03:29:08;-5.00;99.90
25963;DHT22;13760;52.588;13.406;2022-12-18T03:31:40;-5.00;99.90
25963;DHT22;13760;52.588;13.406;2022-12-18T03:34:19;-5.00;99.90
25963;DHT22;13760;52.588;13.406;2022-12-18T03:36:48;-4.90;99.90
25963;DHT22;13760;52.588;13.406;2022-12-18T03:39:13;-4.90;99.90
25963;DHT22;13760;52.588;13.406;2022-12-18T03:47:14;-5.00;99.90
25963;DHT22;13760;52.588;13.406;2022-12-18T03:52:37;-5.00;99.90
25963;DHT22;13760;52.588;13.406;2022-12-18T03:55:05;-5.10;99.90
25963;DHT22;13760;52.588;13.406;2022-12-18T03:57:32;-5.10;99.90
25963;DHT22;13760;52.588;13.406;2022-12-18T04:00:05;-5.10;99.90
25963;DHT22;13760;52.588;13.406;2022-12-18T04:02:32;-5.10;99.90
25963;DHT22;13760;52.588;13.406;2022-12-18T04:05:01;-5.10;99.90
25963;DHT22;13760;52.588;13.406;2022-12-18T04:07:28;-5.10;99.90
25963;DHT22;13760;52.588;13.406;2022-12-18T04:09:56;-5.10;99.90
25963;DHT22;13760;52.588;13.406;2022-12-18T04:12:26;-5.10;99.90
25963;DHT22;13760;52.588;13.406;2022-12-18T04:14:51;-5.10;99.90
25963;DHT22;13760;52.588;13.406;2022-12-18T04:17:17;-5.20;99.90
25963;DHT22;13760;52.588;13.406;2022-12-18T04:19:43;-5.20;99.90
25963;DHT22;13760;52.588;13.406;2022-12-18T04:22:10;-5.20;99.90
25963;DHT22;13760;52.588;13.406;2022-12-18T04:24:36;-5.20;99.90
25963;DHT22;13760;52.588;13.406;2022-12-18T04:27:01;-5.30;99.90
25963;DHT22;13760;52.588;13.406;2022-12-18T04:29:27;-5.30;99.90
25963;DHT22;13760;52.588;13.406;2022-12-18T04:31:53;-5.30;99.90
25963;DHT22;13760;52.588;13.406;2022-12-18T04:34:19;-5.40;99.90
25963;DHT22;13760;52.588;13.406;2022-12-18T04:36:45;-5.40;99.90
25963;DHT22;13760;52.588;13.406;2022-12-18T04:39:10;-5.40;99.90
25963;DHT22;13760;52.588;13.406;2022-12-18T04:41:36;-5.50;99.90
25963;DHT22;13760;52.588;13.406;2022-12-18T04:44:01;-5.50;99.90
25963;DHT22;13760;52.588;13.406;2022-12-18T04:46:27;-5.50;99.90
25963;DHT22;13760;52.588;13.406;2022-12-18T04:48:52;-5.50;99.90
25963;DHT22;13760;52.588;13.406;2022-12-18T04:51:18;-5.50;99.90
25963;DHT22;13760;52.588;13.406;2022-12-18T04:53:43;-5.50;99.90
25963;DHT22;13760;52.588;13.406;2022-12-18T04:56:11;-5.50;99.90
25963;DHT22;13760;52.588;13.406;2022-12-18T04:58:38;-5.50;99.90
25963;DHT22;13760;52.588;13.406;2022-12-18T05:01:04;-5.50;99.90
25963;DHT22;13760;52.588;13.406;2022-12-18T05:03:30;-5.50;99.90
25963;DHT22;13760;52.588;13.406;2022-12-18T05:05:56;-5.50;99.90
25963;DHT22;13760;52.588;13.406;2022-12-18T05:08:22;-5.50;99.90
25963;DHT22;13760;52.588;13.406;2022-12-18T05:10:47;-5.50;99.90
25963;DHT22;13760;52.588;13.406;2022-12-18T05:13:13;-5.50;99.90
25963;DHT22;13760;52.588;13.406;2022-12-18T05:15:38;-5.50;99.90
25963;DHT22;13760;52.588;13.406;2022-12-18T05:18:04;-5.50;99.90
25963;DHT22;13760;52.588;13.406;2022-12-18T05:20:30;-5.50;99.90
25963;DHT22;13760;52.588;13.406;2022-12-18T05:22:56;-5.50;99.90
25963;DHT22;13760;52.588;13.406;2022-12-18T05:25:22;-5.50;99.90
25963;DHT22;13760;52.588;13.406;2022-12-18T05:27:48;-5.50;99.90
25963;DHT22;13760;52.588;13.406;2022-12-18T05:30:14;-5.50;99.90
25963;DHT22;13760;52.588;13.406;2022-12-18T05:32:40;-5.50;99.90
25963;DHT22;13760;52.588;13.406;2022-12-18T05:35:07;-5.50;99.90
25963;DHT22;13760;52.588;13.406;2022-12-18T05:37:33;-5.50;99.90
25963;DHT22;13760;52.588;13.406;2022-12-18T05:39:59;-5.50;99.90
25963;DHT22;13760;52.588;13.406;2022-12-18T05:42:25;-5.50;99.90
25963;DHT22;13760;52.588;13.406;2022-12-18T05:44:50;-5.50;99.90
25963;DHT22;13760;52.588;13.406;2022-12-18T05:47:16;-5.50;99.90
25963;DHT22;13760;52.588;13.406;2022-12-18T05:49:41;-5.50;99.90
25963;DHT22;13760;52.588;13.406;2022-12-18T05:52:07;-5.50;99.90
25963;DHT22;13760;52.588;13.406;2022-12-18T05:54:33;-5.50;99.90
25963;DHT22;13760;52.588;13.406;2022-12-18T05:56:58;-5.50;99.90
25963;DHT22;13760;52.588;13.406;2022-12-18T05:59:24;-5.50;99.90
25963;DHT22;13760;52.588;13.406;2022-12-18T06:01:49;-5.50;99.90
25963;DHT22;13760;52.588;13.406;2022-12-18T06:04:15;-5.50;99.90
25963;DHT22;13760;52.588;13.406;2022-12-18T06:06:40;-5.50;99.90
25963;DHT22;13760;52.588;13.406;2022-12-18T06:09:06;-5.50;99.90
25963;DHT22;13760;52.588;13.406;2022-12-18T06:11:34;-5.50;99.90
25963;DHT22;13760;52.588;13.406;2022-12-18T06:14:00;-5.50;99.90
25963;DHT22;13760;52.588;13.406;2022-12-18T06:16:27;-5.50;99.90
25963;DHT22;13760;52.588;13.406;2022-12-18T06:18:55;-5.50;99.90
25963;DHT22;13760;52.588;13.406;2022-12-18T06:21:21;-5.50;99.90
25963;DHT22;13760;52.588;13.406;2022-12-18T06:23:46;-5.50;99.90
25963;DHT22;13760;52.588;13.406;2022-12-18T06:26:12;-5.50;99.90
25963;DHT22;13760;52.588;13.406;2022-12-18T06:28:39;-5.40;99.90
25963;DHT22;13760;52.588;13.406;2022-12-18T06:31:05;-5.40;99.90
25963;DHT22;13760;52.588;13.406;2022-12-18T06:33:31;-5.50;99.90
25963;DHT22;13760;52.588;13.406;2022-12-18T06:36:02;-5.40;99.90
25963;DHT22;13760;52.588;13.406;2022-12-18T06:38:28;-5.50;99.90
25963;DHT22;13760;52.588;13.406;2022-12-18T06:40:54;-5.40;99.90
25963;DHT22;13760;52.588;13.406;2022-12-18T06:43:25;-5.40;99.90
25963;DHT22;13760;52.588;13.406;2022-12-18T06:45:59;-5.40;99.90
25963;DHT22;13760;52.588;13.406;2022-12-18T06:48:25;-5.50;99.90
25963;DHT22;13760;52.588;13.406;2022-12-18T06:50:50;-5.50;99.90
25963;DHT22;13760;52.588;13.406;2022-12-18T06:53:17;-5.40;99.90
25963;DHT22;13760;52.588;13.406;2022-12-18T06:55:42;-5.40;99.90
25963;DHT22;13760;52.588;13.406;2022-12-18T06:58:08;-5.40;99.90
25963;DHT22;13760;52.588;13.406;2022-12-18T07:00:34;-5.40;99.90
25963;DHT22;13760;52.588;13.406;2022-12-18T07:02:59;-5.40;99.90
25963;DHT22;13760;52.588;13.406;2022-12-18T07:05:25;-5.40;99.90
25963;DHT22;13760;52.588;13.406;2022-12-18T07:07:50;-5.40;99.90
25963;DHT22;13760;52.588;13.406;2022-12-18T07:10:16;-5.40;99.90
25963;DHT22;13760;52.588;13.406;2022-12-18T07:12:41;-5.40;99.90
25963;DHT22;13760;52.588;13.406;2022-12-18T07:15:07;-5.30;99.90
25963;DHT22;13760;52.588;13.406;2022-12-18T07:17:33;-5.40;99.90
25963;DHT22;13760;52.588;13.406;2022-12-18T07:19:58;-5.40;99.90
25963;DHT22;13760;52.588;13.406;2022-12-18T07:22:25;-5.40;99.90
25963;DHT22;13760;52.588;13.406;2022-12-18T07:24:51;-5.40;99.90
25963;DHT22;13760;52.588;13.406;2022-12-18T07:27:16;-5.40;99.90
25963;DHT22;13760;52.588;13.406;2022-12-18T07:29:42;-5.40;99.90
25963;DHT22;13760;52.588;13.406;2022-12-18T07:32:08;-5.40;99.90
25963;DHT22;13760;52.588;13.406;2022-12-18T07:34:33;-5.40;99.90
25963;DHT22;13760;52.588;13.406;2022-12-18T07:36:59;-5.40;99.90
25963;DHT22;13760;52.588;13.406;2022-12-18T07:39:25;-5.40;99.90
25963;DHT22;13760;52.588;13.406;2022-12-18T07:41:50;-5.40;99.90
25963;DHT22;13760;52.588;13.406;2022-12-18T07:44:34;-5.50;99.90
25963;DHT22;13760;52.588;13.406;2022-12-18T07:47:00;-5.40;99.90
25963;DHT22;13760;52.588;13.406;2022-12-18T07:49:25;-5.50;99.90
25963;DHT22;13760;52.588;13.406;2022-12-18T07:51:51;-5.50;99.90
25963;DHT22;13760;52.588;13.406;2022-12-18T07:54:18;-5.40;99.90
25963;DHT22;13760;52.588;13.406;2022-12-18T07:56:44;-5.50;99.90
25963;DHT22;13760;52.588;13.406;2022-12-18T07:59:10;-5.40;99.90
25963;DHT22;13760;52.588;13.406;2022-12-18T08:01:35;-5.40;99.90
25963;DHT22;13760;52.588;13.406;2022-12-18T08:04:01;-5.40;99.90
25963;DHT22;13760;52.588;13.406;2022-12-18T08:06:26;-5.40;99.90
25963;DHT22;13760;52.588;13.406;2022-12-18T08:08:53;-5.40;99.90
25963;DHT22;13760;52.588;13.406;2022-12-18T08:11:19;-5.40;99.90
25963;DHT22;13760;52.588;13.406;2022-12-18T08:13:45;-5.30;99.90
25963;DHT22;13760;52.588;13.406;2022-12-18T08:16:10;-5.30;99.90
25963;DHT22;13760;52.588;13.406;2022-12-18T08:18:37;-5.30;99.90
25963;DHT22;13760;52.588;13.406;2022-12-18T08:23:35;-5.30;99.90
25963;DHT22;13760;52.588;13.406;2022-12-18T08:26:01;-5.30;99.90
25963;DHT22;13760;52.588;13.406;2022-12-18T08:28:27;-5.20;99.90
25963;DHT22;13760;52.588;13.406;2022-12-18T08:30:52;-5.20;99.90
25963;DHT22;13760;52.588;13.406;2022-12-18T08:33:18;-5.20;99.90
25963;DHT22;13760;52.588;13.406;2022-12-18T08:35:43;-5.20;99.90
25963;DHT22;13760;52.588;13.406;2022-12-18T08:38:09;-5.20;99.90
25963;DHT22;13760;52.588;13.406;2022-12-18T08:40:35;-5.20;99.90
25963;DHT22;13760;52.588;13.406;2022-12-18T08:43:00;-5.20;99.90
25963;DHT22;13760;52.588;13.406;2022-12-18T08:45:44;-5.20;99.90
25963;DHT22;13760;52.588;13.406;2022-12-18T08:48:10;-5.10;99.90
25963;DHT22;13760;52.588;13.406;2022-12-18T08:50:35;-5.10;99.90
25963;DHT22;13760;52.588;13.406;2022-12-18T08:53:02;-5.10;99.90
25963;DHT22;13760;52.588;13.406;2022-12-18T08:55:27;-5.10;99.90
25963;DHT22;13760;52.588;13.406;2022-12-18T08:57:53;-5.10;99.90
25963;DHT22;13760;52.588;13.406;2022-12-18T09:00:18;-5.00;99.90
25963;DHT22;13760;52.588;13.406;2022-12-18T09:02:45;-5.10;99.90
25963;DHT22;13760;52.588;13.406;2022-12-18T09:05:10;-5.00;99.90
25963;DHT22;13760;52.588;13.406;2022-12-18T09:07:36;-5.00;99.90
25963;DHT22;13760;52.588;13.406;2022-12-18T09:10:02;-5.00;99.90
25963;DHT22;13760;52.588;13.406;2022-12-18T09:12:27;-5.00;99.90
25963;DHT22;13760;52.588;13.406;2022-12-18T09:14:53;-4.90;99.90
25963;DHT22;13760;52.588;13.406;2022-12-18T09:17:18;-4.90;99.90
25963;DHT22;13760;52.588;13.406;2022-12-18T09:19:44;-4.90;99.90
25963;DHT22;13760;52.588;13.406;2022-12-18T09:22:09;-4.90;99.90
25963;DHT22;13760;52.588;13.406;2022-12-18T09:24:35;-4.80;99.90
25963;DHT22;13760;52.588;13.406;2022-12-18T09:27:01;-4.80;99.90
25963;DHT22;13760;52.588;13.406;2022-12-18T09:29:27;-4.80;99.90
25963;DHT22;13760;52.588;13.406;2022-12-18T09:31:52;-4.80;99.90
25963;DHT22;13760;52.588;13.406;2022-12-18T09:34:18;-4.80;99.90
25963;DHT22;13760;52.588;13.406;2022-12-18T09:36:46;-4.70;99.90
25963;DHT22;13760;52.588;13.406;2022-12-18T09:39:12;-4.70;99.90
25963;DHT22;13760;52.588;13.406;2022-12-18T09:41:52;-4.70;99.90
25963;DHT22;13760;52.588;13.406;2022-12-18T09:44:29;-4.70;99.90
25963;DHT22;13760;52.588;13.406;2022-12-18T09:49:43;-4.60;99.90
25963;DHT22;13760;52.588;13.406;2022-12-18T09:52:27;-4.50;99.90
25963;DHT22;13760;52.588;13.406;2022-12-18T10:00:47;-4.50;99.90
25963;DHT22;13760;52.588;13.406;2022-12-18T10:03:15;-4.50;99.90
25963;DHT22;13760;52.588;13.406;2022-12-18T10:08:51;-4.40;99.90
25963;DHT22;13760;52.588;13.406;2022-12-18T10:19:59;-4.30;99.90
25963;DHT22;13760;52.588;13.406;2022-12-18T10:25:19;-4.20;99.90
25963;DHT22;13760;52.588;13.406;2022-12-18T10:27:47;-4.20;99.90
25963;DHT22;13760;52.588;13.406;2022-12-18T10:30:16;-4.10;99.90
25963;DHT22;13760;52.588;13.406;2022-12-18T10:32:42;-4.10;99.90
25963;DHT22;13760;52.588;13.406;2022-12-18T10:35:15;-4.10;99.90
25963;DHT22;13760;52.588;13.406;2022-12-18T10:38:32;-4.00;99.90
25963;DHT22;13760;52.588;13.406;2022-12-18T10:41:04;-4.00;99.90
25963;DHT22;13760;52.588;13.406;2022-12-18T10:43:31;-3.90;99.90
25963;DHT22;13760;52.588;13.406;2022-12-18T10:46:01;-3.90;99.90
25963;DHT22;13760;52.588;13.406;2022-12-18T10:48:27;-3.80;99.90
25963;DHT22;13760;52.588;13.406;2022-12-18T10:50:53;-3.80;99.90
25963;DHT22;13760;52.588;13.406;2022-12-18T10:53:23;-3.80;99.90
25963;DHT22;13760;52.588;13.406;2022-12-18T10:55:49;-3.80;99.90
25963;DHT22;13760;52.588;13.406;2022-12-18T10:58:33;-3.80;99.90
25963;DHT22;13760;52.588;13.406;2022-12-18T11:01:09;-3.70;99.90
25963;DHT22;13760;52.588;13.406;2022-12-18T11:03:46;-3.70;99.90
25963;DHT22;13760;52.588;13.406;2022-12-18T11:06:14;-3.60;99.90
25963;DHT22;13760;52.588;13.406;2022-12-18T11:08:42;-3.60;99.90
25963;DHT22;13760;52.588;13.406;2022-12-18T11:11:20;-3.50;99.90
25963;DHT22;13760;52.588;13.406;2022-12-18T11:13:59;-3.60;99.90
25963;DHT22;13760;52.588;13.406;2022-12-18T11:16:27;-3.50;99.90
25963;DHT22;13760;52.588;13.406;2022-12-18T11:18:53;-3.50;99.90
25963;DHT22;13760;52.588;13.406;2022-12-18T11:21:19;-3.50;99.90
25963;DHT22;13760;52.588;13.406;2022-12-18T11:23:59;-3.50;99.90
25963;DHT22;13760;52.588;13.406;2022-12-18T11:26:34;-3.50;99.90
25963;DHT22;13760;52.588;13.406;2022-12-18T11:29:15;-3.50;99.90
25963;DHT22;13760;52.588;13.406;2022-12-18T11:31:42;-3.50;99.90
25963;DHT22;13760;52.588;13.406;2022-12-18T11:34:30;-3.50;99.90
25963;DHT22;13760;52.588;13.406;2022-12-18T11:36:59;-3.50;99.90
25963;DHT22;13760;52.588;13.406;2022-12-18T11:39:36;-3.50;99.90
25963;DHT22;13760;52.588;13.406;2022-12-18T11:42:21;-3.50;99.90
25963;DHT22;13760;52.588;13.406;2022-12-18T11:44:57;-3.50;99.90
25963;DHT22;13760;52.588;13.406;2022-12-18T11:48:03;-3.50;99.90
25963;DHT22;13760;52.588;13.406;2022-12-18T11:53:16;-3.40;99.90
25963;DHT22;13760;52.588;13.406;2022-12-18T11:58:52;-3.40;99.90
25963;DHT22;13760;52.588;13.406;2022-12-18T12:01:38;-3.40;99.90
25963;DHT22;13760;52.588;13.406;2022-12-18T12:10:00;-3.30;99.90
25963;DHT22;13760;52.588;13.406;2022-12-18T12:12:59;-3.30;99.90
25963;DHT22;13760;52.588;13.406;2022-12-18T12:21:17;-3.40;99.90
25963;DHT22;13760;52.588;13.406;2022-12-18T12:27:00;-3.40;99.90
25963;DHT22;13760;52.588;13.406;2022-12-18T12:35:19;-3.40;99.90
25963;DHT22;13760;52.588;13.406;2022-12-18T12:40:18;-3.40;99.90
25963;DHT22;13760;52.588;13.406;2022-12-18T12:45:45;-3.50;99.90
25963;DHT22;13760;52.588;13.406;2022-12-18T12:50:53;-3.40;99.90
25963;DHT22;13760;52.588;13.406;2022-12-18T12:53:31;-3.40;99.90
25963;DHT22;13760;52.588;13.406;2022-12-18T12:55:58;-3.40;99.90
25963;DHT22;13760;52.588;13.406;2022-12-18T12:58:45;-3.40;99.90
25963;DHT22;13760;52.588;13.406;2022-12-18T13:07:06;-3.40;99.90
25963;DHT22;13760;52.588;13.406;2022-12-18T13:13:06;-3.50;99.90
25963;DHT22;13760;52.588;13.406;2022-12-18T13:15:46;-3.50;99.90
25963;DHT22;13760;52.588;13.406;2022-12-18T13:18:23;-3.50;99.90
25963;DHT22;13760;52.588;13.406;2022-12-18T13:21:02;-3.40;99.90
25963;DHT22;13760;52.588;13.406;2022-12-18T13:23:33;-3.40;99.90
25963;DHT22;13760;52.588;13.406;2022-12-18T13:33:40;-3.30;99.90
25963;DHT22;13760;52.588;13.406;2022-12-18T13:36:14;-3.30;99.90
25963;DHT22;13760;52.588;13.406;2022-12-18T13:38:44;-3.30;99.90
25963;DHT22;13760;52.588;13.406;2022-12-18T13:41:26;-3.30;99.90
25963;DHT22;13760;52.588;13.406;2022-12-18T13:43:56;-3.30;99.90
25963;DHT22;13760;52.588;13.406;2022-12-18T13:46:45;-3.30;99.90
25963;DHT22;13760;52.588;13.406;2022-12-18T13:51:58;-3.30;99.90
25963;DHT22;13760;52.588;13.406;2022-12-18T13:54:27;-3.30;99.90
25963;DHT22;13760;52.588;13.406;2022-12-18T13:56:54;-3.40;99.90
25963;DHT22;13760;52.588;13.406;2022-12-18T13:59:25;-3.40;99.90
25963;DHT22;13760;52.588;13.406;2022-12-18T14:02:15;-3.40;99.90
25963;DHT22;13760;52.588;13.406;2022-12-18T14:04:41;-3.40;99.90
25963;DHT22;13760;52.588;13.406;2022-12-18T14:07:13;-3.40;99.90
25963;DHT22;13760;52.588;13.406;2022-12-18T14:09:51;-3.40;99.90
25963;DHT22;13760;52.588;13.406;2022-12-18T14:15:02;-3.40;99.90
25963;DHT22;13760;52.588;13.406;2022-12-18T14:17:27;-3.40;99.90
25963;DHT22;13760;52.588;13.406;2022-12-18T14:19:53;-3.50;99.90
25963;DHT22;13760;52.588;13.406;2022-12-18T14:22:21;-3.50;99.90
25963;DHT22;13760;52.588;13.406;2022-12-18T14:24:47;-3.60;99.90
25963;DHT22;13760;52.588;13.406;2022-12-18T14:27:29;-3.60;99.90
25963;DHT22;13760;52.588;13.406;2022-12-18T14:29:55;-3.60;99.90
25963;DHT22;13760;52.588;13.406;2022-12-18T14:32:20;-3.60;99.90
25963;DHT22;13760;52.588;13.406;2022-12-18T14:34:53;-3.60;99.90
25963;DHT22;13760;52.588;13.406;2022-12-18T14:37:26;-3.60;99.90
25963;DHT22;13760;52.588;13.406;2022-12-18T14:39:57;-3.60;99.90
25963;DHT22;13760;52.588;13.406;2022-12-18T14:42:23;-3.50;99.90
25963;DHT22;13760;52.588;13.406;2022-12-18T14:47:59;-3.50;99.90
25963;DHT22;13760;52.588;13.406;2022-12-18T14:50:25;-3.50;99.90
25963;DHT22;13760;52.588;13.406;2022-12-18T14:52:51;-3.50;99.90
25963;DHT22;13760;52.588;13.406;2022-12-18T14:55:18;-3.60;99.90
25963;DHT22;13760;52.588;13.406;2022-12-18T14:57:44;-3.60;99.90
25963;DHT22;13760;52.588;13.406;2022-12-18T15:00:18;-3.60;99.90
25963;DHT22;13760;52.588;13.406;2022-12-18T15:02:55;-3.60;99.90
25963;DHT22;13760;52.588;13.406;2022-12-18T15:05:30;-3.60;99.90
25963;DHT22;13760;52.588;13.406;2022-12-18T15:07:58;-3.60;99.90
25963;DHT22;13760;52.588;13.406;2022-12-18T15:10:29;-3.60;99.90
25963;DHT22;13760;52.588;13.406;2022-12-18T15:18:23;-3.50;99.90
25963;DHT22;13760;52.588;13.406;2022-12-18T15:20:54;-3.50;99.90
25963;DHT22;13760;52.588;13.406;2022-12-18T15:23:35;-3.50;99.90
25963;DHT22;13760;52.588;13.406;2022-12-18T15:26:03;-3.50;99.90
25963;DHT22;13760;52.588;13.406;2022-12-18T15:28:48;-3.60;99.90
25963;DHT22;13760;52.588;13.406;2022-12-18T15:34:05;-3.60;99.90
25963;DHT22;13760;52.588;13.406;2022-12-18T15:36:30;-3.50;99.90
25963;DHT22;13760;52.588;13.406;2022-12-18T15:38:57;-3.60;99.90
25963;DHT22;13760;52.588;13.406;2022-12-18T15:41:23;-3.50;99.90
25963;DHT22;13760;52.588;13.406;2022-12-18T15:43:51;-3.60;99.90
25963;DHT22;13760;52.588;13.406;2022-12-18T15:46:19;-3.60;99.90
25963;DHT22;13760;52.588;13.406;2022-12-18T15:48:47;-3.60;99.90
25963;DHT22;13760;52.588;13.406;2022-12-18T15:51:19;-3.60;99.90
25963;DHT22;13760;52.588;13.406;2022-12-18T15:53:46;-3.60;99.90
25963;DHT22;13760;52.588;13.406;2022-12-18T15:56:13;-3.50;99.90
25963;DHT22;13760;52.588;13.406;2022-12-18T15:58:58;-3.60;99.90
25963;DHT22;13760;52.588;13.406;2022-12-18T16:01:27;-3.60;99.90
25963;DHT22;13760;52.588;13.406;2022-12-18T16:03:58;-3.60;99.90
25963;DHT22;13760;52.588;13.406;2022-12-18T16:06:24;-3.60;99.90
25963;DHT22;13760;52.588;13.406;2022-12-18T16:08:50;-3.60;99.90
25963;DHT22;13760;52.588;13.406;2022-12-18T16:11:30;-3.60;99.90
25963;DHT22;13760;52.588;13.406;2022-12-18T16:16:46;-3.70;99.90
25963;DHT22;13760;52.588;13.406;2022-12-18T16:19:12;-3.70;99.90
25963;DHT22;13760;52.588;13.406;2022-12-18T16:21:37;-3.70;99.90
25963;DHT22;13760;52.588;13.406;2022-12-18T16:24:03;-3.70;99.90
25963;DHT22;13760;52.588;13.406;2022-12-18T16:26:31;-3.70;99.90
25963;DHT22;13760;52.588;13.406;2022-12-18T16:28:57;-3.70;99.90
25963;DHT22;13760;52.588;13.406;2022-12-18T16:31:22;-3.70;99.90
25963;DHT22;13760;52.588;13.406;2022-12-18T16:33:48;-3.70;99.90
25963;DHT22;13760;52.588;13.406;2022-12-18T16:36:22;-3.70;99.90
25963;DHT22;13760;52.588;13.406;2022-12-18T16:38:54;-3.70;99.90
25963;DHT22;13760;52.588;13.406;2022-12-18T16:41:20;-3.70;99.90
25963;DHT22;13760;52.588;13.406;2022-12-18T16:43:59;-3.70;99.90
25963;DHT22;13760;52.588;13.406;2022-12-18T16:46:24;-3.70;99.90
25963;DHT22;13760;52.588;13.406;2022-12-18T16:48:50;-3.70;99.90
25963;DHT22;13760;52.588;13.406;2022-12-18T16:51:15;-3.70;99.90
25963;DHT22;13760;52.588;13.406;2022-12-18T16:53:41;-3.70;99.90
25963;DHT22;13760;52.588;13.406;2022-12-18T16:56:06;-3.70;99.90
25963;DHT22;13760;52.588;13.406;2022-12-18T16:58:32;-3.70;99.90
25963;DHT22;13760;52.588;13.406;2022-12-18T17:00:58;-3.70;99.90
25963;DHT22;13760;52.588;13.406;2022-12-18T17:03:24;-3.70;99.90
25963;DHT22;13760;52.588;13.406;2022-12-18T17:05:49;-3.70;99.90
25963;DHT22;13760;52.588;13.406;2022-12-18T17:08:15;-3.70;99.90
25963;DHT22;13760;52.588;13.406;2022-12-18T17:10:40;-3.70;99.90
25963;DHT22;13760;52.588;13.406;2022-12-18T17:13:06;-3.70;99.90
25963;DHT22;13760;52.588;13.406;2022-12-18T17:15:35;-3.70;99.90
25963;DHT22;13760;52.588;13.406;2022-12-18T17:18:02;-3.80;99.90
25963;DHT22;13760;52.588;13.406;2022-12-18T17:20:29;-3.80;99.90
25963;DHT22;13760;52.588;13.406;2022-12-18T17:22:58;-3.80;99.90
25963;DHT22;13760;52.588;13.406;2022-12-18T17:25:23;-3.90;99.90